Terminal Aerodrome Forecast
Issued by NWS

Current Version | Previous Version | Text Only | Print | Product List | Glossary On
Versions: 1 2 3 4 5 6 7 8 9 10 11 12 13 14 15 16 17 18 19 20 21 22 23 24
000
FTUS44 KJAN 040603 RRA
TAFGTR
TAF
KGTR 040603Z 0406/0506 33006KT P6SM SCT050
     FM041400 29008KT P6SM FEW050
     FM041730 29015G23KT P6SM SCT050
     FM042200 30014G22KT P6SM VCTS SCT050 BKN070CB=

USA.gov is the U.S. government's official web portal to all federal, state and local government web resources and services.